createdAt,value
2022-07-25T00:00:31.132Z,19.06
2022-07-25T00:03:19.038Z,18.97
2022-07-25T00:06:05.648Z,18.73
2022-07-25T00:08:52.023Z,18.94
2022-07-25T00:11:38.553Z,18.90
2022-07-25T00:14:24.731Z,18.77
2022-07-25T00:17:11.204Z,18.74
2022-07-25T00:19:57.298Z,18.66
2022-07-25T00:22:43.613Z,18.71
2022-07-25T00:25:29.885Z,18.70
2022-07-25T00:28:16.062Z,18.70
2022-07-25T00:31:02.470Z,18.51
2022-07-25T00:33:49.061Z,18.40
2022-07-25T00:36:35.543Z,18.52
2022-07-25T00:39:22.002Z,18.48
2022-07-25T00:42:08.100Z,18.49
2022-07-25T00:44:54.779Z,18.28
2022-07-25T00:47:41.118Z,18.05
2022-07-25T00:50:27.723Z,18.28
2022-07-25T00:53:14.036Z,18.28
2022-07-25T00:56:00.833Z,18.06
2022-07-25T00:58:46.923Z,18.20
2022-07-25T01:01:33.476Z,17.91
2022-07-25T01:04:20.107Z,18.13
2022-07-25T01:07:07.051Z,18.13
2022-07-25T01:09:54.294Z,17.97
2022-07-25T01:12:48.887Z,17.91
2022-07-25T01:15:35.535Z,18.03
2022-07-25T01:18:22.054Z,17.78
2022-07-25T01:21:09.024Z,18.01
2022-07-25T01:23:55.595Z,18.04
2022-07-25T01:26:42.227Z,18.04
2022-07-25T01:29:28.920Z,17.94
2022-07-25T01:32:15.380Z,17.91
2022-07-25T01:35:02.958Z,17.92
2022-07-25T01:37:49.627Z,17.63
2022-07-25T01:40:36.050Z,17.66
2022-07-25T01:43:22.427Z,17.81
2022-07-25T01:46:08.837Z,17.85
2022-07-25T01:48:55.696Z,17.50
2022-07-25T01:51:42.364Z,17.73
2022-07-25T01:54:28.717Z,17.63
2022-07-25T01:57:15.300Z,17.66
2022-07-25T02:00:10.042Z,17.66
2022-07-25T02:03:17.976Z,17.43
2022-07-25T02:06:06.813Z,17.63
2022-07-25T02:08:53.260Z,17.54
2022-07-25T02:11:39.490Z,17.41
2022-07-25T02:14:25.711Z,17.21
2022-07-25T02:17:12.181Z,17.44
2022-07-25T02:19:58.513Z,17.34
2022-07-25T02:22:44.984Z,17.44
2022-07-25T02:25:32.641Z,17.46
2022-07-25T02:28:18.884Z,17.44
2022-07-25T02:31:05.451Z,17.38
2022-07-25T02:33:52.048Z,17.41
2022-07-25T02:36:38.298Z,17.41
2022-07-25T02:39:25.341Z,17.26
2022-07-25T02:42:11.819Z,17.28
2022-07-25T02:44:58.190Z,17.36
2022-07-25T02:47:44.489Z,17.30
2022-07-25T02:50:31.107Z,17.25
2022-07-25T02:53:28.923Z,17.41
2022-07-25T02:56:23.359Z,17.26
2022-07-25T02:59:09.979Z,17.30
2022-07-25T03:01:56.215Z,17.36
2022-07-25T03:04:42.407Z,17.08
2022-07-25T03:07:28.859Z,17.04
2022-07-25T03:10:15.218Z,16.99
2022-07-25T03:13:01.517Z,17.10
2022-07-25T03:15:47.814Z,16.89
2022-07-25T03:18:34.207Z,16.81
2022-07-25T03:21:20.706Z,17.05
2022-07-25T03:24:07.371Z,16.75
2022-07-25T03:26:54.996Z,16.94
2022-07-25T03:29:41.388Z,16.99
2022-07-25T03:32:27.714Z,16.86
2022-07-25T03:35:13.936Z,16.95
2022-07-25T03:38:00.399Z,16.92
2022-07-25T03:40:46.476Z,16.88
2022-07-25T03:43:33.014Z,16.97
2022-07-25T03:46:19.524Z,17.01
2022-07-25T03:49:05.975Z,17.01
2022-07-25T03:51:52.547Z,16.89
2022-07-25T03:54:39.135Z,16.93
2022-07-25T03:57:25.309Z,16.86
2022-07-25T04:00:12.547Z,16.79
2022-07-25T04:02:59.044Z,16.85
2022-07-25T04:05:47.638Z,17.01
2022-07-25T04:08:34.440Z,16.95
2022-07-25T04:11:21.404Z,17.05
2022-07-25T04:14:08.056Z,16.89
2022-07-25T04:16:54.476Z,17.03
2022-07-25T04:19:41.086Z,17.15
2022-07-25T04:22:27.388Z,17.27
2022-07-25T04:25:14.183Z,17.19
2022-07-25T04:28:00.661Z,17.15
2022-07-25T04:30:47.207Z,17.06
2022-07-25T04:33:33.530Z,17.22
2022-07-25T04:36:20.027Z,17.40
2022-07-25T04:39:06.143Z,17.47
2022-07-25T04:41:52.619Z,17.58
2022-07-25T04:44:38.893Z,17.53
2022-07-25T04:47:25.065Z,18.19
2022-07-25T04:50:11.427Z,18.41
2022-07-25T04:52:58.389Z,18.53
2022-07-25T04:55:45.283Z,18.66
2022-07-25T04:58:32.183Z,19.01
2022-07-25T05:01:18.446Z,20.20
2022-07-25T05:04:05.248Z,21.40
2022-07-25T05:06:52.089Z,22.62
2022-07-25T05:09:38.396Z,23.72
2022-07-25T05:12:24.515Z,24.67
2022-07-25T05:15:11.379Z,25.83
2022-07-25T05:17:57.903Z,26.49
2022-07-25T05:20:44.108Z,27.16
2022-07-25T05:23:30.376Z,27.75
2022-07-25T05:26:16.770Z,28.01
2022-07-25T05:29:03.390Z,28.23
2022-07-25T05:31:49.717Z,28.61
2022-07-25T05:34:36.243Z,28.73
2022-07-25T05:37:22.769Z,28.77
2022-07-25T05:40:09.637Z,28.85
2022-07-25T05:42:59.521Z,29.04
2022-07-25T05:45:49.585Z,28.95
2022-07-25T05:48:35.918Z,28.81
2022-07-25T05:51:25.546Z,28.60
2022-07-25T05:54:14.165Z,28.27
2022-07-25T05:57:01.272Z,27.51
2022-07-25T05:59:47.734Z,27.09
2022-07-25T06:02:34.131Z,26.51
2022-07-25T06:05:20.806Z,26.17
2022-07-25T06:08:07.405Z,25.10
2022-07-25T06:10:53.698Z,25.11
2022-07-25T06:13:40.126Z,24.87
2022-07-25T06:16:27.356Z,24.65
2022-07-25T06:19:14.048Z,24.37
2022-07-25T06:22:00.603Z,24.49
2022-07-25T06:24:46.811Z,24.13
2022-07-25T06:27:33.021Z,24.46
2022-07-25T06:30:20.596Z,24.34
2022-07-25T06:33:07.199Z,24.31
2022-07-25T06:35:53.593Z,24.24
2022-07-25T06:38:39.990Z,24.61
2022-07-25T06:41:26.440Z,24.55
2022-07-25T06:44:12.681Z,24.72
2022-07-25T06:46:58.962Z,24.90
2022-07-25T06:49:45.506Z,24.99
2022-07-25T06:52:32.037Z,25.23
2022-07-25T06:55:18.420Z,25.53
2022-07-25T06:58:05.234Z,25.71
2022-07-25T07:00:51.851Z,26.02
2022-07-25T07:03:39.763Z,26.26
2022-07-25T07:06:26.226Z,26.55
2022-07-25T07:09:12.621Z,26.81
2022-07-25T07:11:59.290Z,27.04
2022-07-25T07:14:45.532Z,27.42
2022-07-25T07:17:31.743Z,27.68
2022-07-25T07:20:18.298Z,27.71
2022-07-25T07:23:04.550Z,27.91
2022-07-25T07:25:52.184Z,27.93
2022-07-25T07:28:38.628Z,28.07
2022-07-25T07:31:25.236Z,28.32
2022-07-25T07:34:11.967Z,28.18
2022-07-25T07:37:03.526Z,28.63
2022-07-25T07:39:50.203Z,28.59
2022-07-25T07:42:41.583Z,28.65
2022-07-25T07:45:27.945Z,28.58
2022-07-25T07:48:14.350Z,28.77
2022-07-25T07:51:01.487Z,28.94
2022-07-25T07:54:06.323Z,28.76
2022-07-25T07:56:52.677Z,29.03
2022-07-25T07:59:39.019Z,29.01
2022-07-25T08:02:25.356Z,29.11
2022-07-25T08:05:12.017Z,29.11
2022-07-25T08:07:59.452Z,29.00
2022-07-25T08:10:47.549Z,29.13
2022-07-25T08:13:34.215Z,28.93
2022-07-25T08:16:20.897Z,29.09
2022-07-25T08:19:07.321Z,29.28
2022-07-25T08:21:53.939Z,29.09
2022-07-25T08:24:40.288Z,29.10
2022-07-25T08:27:26.849Z,29.18
2022-07-25T08:30:15.097Z,29.43
2022-07-25T08:33:04.728Z,29.49
2022-07-25T08:35:55.954Z,29.56
2022-07-25T08:38:42.783Z,29.58
2022-07-25T08:41:29.381Z,29.73
2022-07-25T08:44:18.565Z,29.79
2022-07-25T08:47:05.211Z,29.69
2022-07-25T08:50:00.872Z,29.68
2022-07-25T08:53:00.728Z,29.80
2022-07-25T08:55:56.666Z,29.87
2022-07-25T08:58:44.090Z,29.99
2022-07-25T09:01:34.729Z,30.14
2022-07-25T09:04:21.774Z,30.08
2022-07-25T09:07:08.564Z,30.35
2022-07-25T09:09:55.226Z,30.42
2022-07-25T09:12:42.732Z,30.52
2022-07-25T09:15:34.829Z,30.45
2022-07-25T09:18:27.184Z,30.66
2022-07-25T09:21:13.851Z,30.65
2022-07-25T09:24:18.683Z,30.64
2022-07-25T09:27:12.488Z,30.73
2022-07-25T09:29:59.874Z,30.59
2022-07-25T09:32:46.971Z,30.64
2022-07-25T09:35:38.583Z,31.06
2022-07-25T09:38:25.158Z,31.05
2022-07-25T09:41:11.704Z,31.12
2022-07-25T09:43:58.073Z,31.25
2022-07-25T09:46:44.995Z,31.25
2022-07-25T09:49:45.260Z,31.18
2022-07-25T09:52:31.794Z,31.23
2022-07-25T09:55:20.066Z,31.08
2022-07-25T09:58:06.696Z,31.10
2022-07-25T10:01:02.987Z,31.35
2022-07-25T10:04:19.439Z,31.56
2022-07-25T10:07:10.268Z,31.61
2022-07-25T10:09:57.460Z,31.52
2022-07-25T10:13:10.149Z,31.82
2022-07-25T10:15:57.057Z,31.87
2022-07-25T10:18:52.029Z,31.88
2022-07-25T10:21:38.485Z,32.11
2022-07-25T10:24:34.161Z,31.97
2022-07-25T10:27:24.700Z,32.09
2022-07-25T10:30:20.649Z,32.31
2022-07-25T10:33:15.939Z,32.22
2022-07-25T10:36:07.713Z,32.50
2022-07-25T10:38:57.725Z,32.42
2022-07-25T10:42:00.204Z,32.32
2022-07-25T10:45:09.389Z,32.51
2022-07-25T10:47:55.986Z,32.46
2022-07-25T10:50:55.740Z,32.61
2022-07-25T10:53:44.220Z,32.80
2022-07-25T10:56:30.772Z,33.02
2022-07-25T10:59:46.375Z,33.00
2022-07-25T11:02:33.696Z,33.13
2022-07-25T11:05:20.254Z,33.35
2022-07-25T11:08:21.119Z,33.51
2022-07-25T11:11:09.325Z,33.68
2022-07-25T11:13:56.787Z,33.95
2022-07-25T11:16:44.934Z,33.71
2022-07-25T11:19:31.355Z,34.01
2022-07-25T11:22:17.838Z,33.90
2022-07-25T11:25:13.862Z,33.89
2022-07-25T11:28:01.124Z,34.31
2022-07-25T11:30:47.634Z,34.35
2022-07-25T11:33:38.693Z,34.41
2022-07-25T11:36:25.772Z,34.23
2022-07-25T11:39:17.021Z,33.97
2022-07-25T11:42:12.374Z,34.04
2022-07-25T11:44:58.959Z,34.20
2022-07-25T11:47:46.624Z,34.25
2022-07-25T11:50:35.356Z,33.99
2022-07-25T11:53:22.276Z,34.27
2022-07-25T11:56:41.441Z,34.16
2022-07-25T11:59:26.210Z,34.13
2022-07-25T12:02:25.523Z,34.00
2022-07-25T12:05:14.404Z,33.99
2022-07-25T12:08:15.417Z,34.24
2022-07-25T12:11:01.894Z,34.32
2022-07-25T12:13:49.115Z,34.26
2022-07-25T12:16:36.546Z,33.90
2022-07-25T12:19:23.057Z,34.05
2022-07-25T12:22:09.567Z,33.93
2022-07-25T12:24:55.870Z,34.03
2022-07-25T12:27:42.565Z,34.03
2022-07-25T12:30:30.576Z,33.90
2022-07-25T12:33:17.328Z,33.92
2022-07-25T12:36:08.394Z,33.63
2022-07-25T12:38:55.330Z,34.04
2022-07-25T12:41:42.615Z,34.07
2022-07-25T12:44:29.107Z,33.87
2022-07-25T12:47:15.991Z,33.62
2022-07-25T12:50:02.911Z,33.82
2022-07-25T12:52:49.113Z,33.84
2022-07-25T12:55:35.759Z,34.06
2022-07-25T12:58:22.323Z,34.27
2022-07-25T13:01:09.401Z,34.65
2022-07-25T13:03:55.795Z,34.86
2022-07-25T13:06:42.614Z,34.94
2022-07-25T13:09:29.153Z,35.00
2022-07-25T13:12:16.692Z,34.95
2022-07-25T13:15:03.878Z,35.21
2022-07-25T13:17:50.446Z,35.07
2022-07-25T13:20:37.437Z,34.31
2022-07-25T13:23:24.048Z,34.67
2022-07-25T13:26:10.689Z,34.56
2022-07-25T13:29:00.029Z,34.64
2022-07-25T13:31:47.236Z,34.62
2022-07-25T13:34:34.374Z,34.65
2022-07-25T13:37:20.643Z,34.62
2022-07-25T13:40:07.583Z,34.53
2022-07-25T13:42:54.267Z,34.65
2022-07-25T13:45:42.210Z,34.44
2022-07-25T13:48:30.889Z,33.93
2022-07-25T13:51:18.218Z,33.59
2022-07-25T13:54:04.627Z,33.18
2022-07-25T13:56:51.171Z,32.80
2022-07-25T13:59:37.820Z,32.50
2022-07-25T14:02:24.473Z,32.54
2022-07-25T14:05:11.170Z,32.75
2022-07-25T14:07:57.728Z,33.18
2022-07-25T14:10:44.338Z,33.44
2022-07-25T14:13:32.866Z,33.31
2022-07-25T14:16:20.179Z,33.35
2022-07-25T14:19:06.844Z,33.62
2022-07-25T14:21:53.450Z,33.95
2022-07-25T14:24:39.920Z,33.98
2022-07-25T14:27:26.295Z,34.22
2022-07-25T14:30:12.900Z,34.44
2022-07-25T14:32:59.292Z,34.57
2022-07-25T14:35:45.542Z,34.65
2022-07-25T14:38:32.089Z,34.60
2022-07-25T14:41:18.410Z,34.68
2022-07-25T14:44:05.398Z,34.43
2022-07-25T14:46:52.666Z,34.17
2022-07-25T14:49:40.606Z,33.76
2022-07-25T14:52:26.888Z,33.65
2022-07-25T14:55:13.479Z,33.29
2022-07-25T14:58:02.492Z,33.19
2022-07-25T15:00:49.002Z,32.63
2022-07-25T15:03:36.115Z,32.35
2022-07-25T15:06:27.308Z,31.58
2022-07-25T15:09:15.407Z,31.24
2022-07-25T15:12:01.958Z,31.04
2022-07-25T15:14:48.431Z,30.95
2022-07-25T15:17:34.968Z,30.80
2022-07-25T15:20:22.020Z,30.71
2022-07-25T15:23:08.795Z,30.72
2022-07-25T15:26:01.640Z,30.66
2022-07-25T15:28:48.754Z,30.68
2022-07-25T15:31:36.295Z,30.75
2022-07-25T15:34:22.720Z,31.07
2022-07-25T15:37:09.056Z,31.18
2022-07-25T15:39:55.570Z,31.13
2022-07-25T15:42:42.047Z,31.40
2022-07-25T15:45:33.429Z,31.55
2022-07-25T15:48:20.271Z,31.38
2022-07-25T15:51:07.716Z,31.70
2022-07-25T15:53:54.188Z,31.85
2022-07-25T15:56:40.503Z,31.73
2022-07-25T15:59:26.803Z,31.95
2022-07-25T16:02:13.171Z,32.04
2022-07-25T16:04:59.690Z,32.12
2022-07-25T16:07:45.954Z,32.07
2022-07-25T16:10:33.152Z,32.35
2022-07-25T16:13:19.605Z,32.34
2022-07-25T16:16:06.073Z,32.35
2022-07-25T16:18:52.823Z,32.29
2022-07-25T16:21:39.973Z,32.18
2022-07-25T16:24:26.337Z,32.29
2022-07-25T16:27:12.638Z,32.30
2022-07-25T16:29:58.918Z,32.22
2022-07-25T16:32:45.108Z,32.23
2022-07-25T16:35:32.615Z,32.00
2022-07-25T16:38:19.117Z,32.00
2022-07-25T16:41:05.681Z,31.90
2022-07-25T16:43:52.419Z,31.85
2022-07-25T16:46:39.018Z,31.90
2022-07-25T16:49:25.682Z,31.96
2022-07-25T16:52:12.349Z,31.72
2022-07-25T16:55:00.693Z,31.75
2022-07-25T16:57:47.248Z,31.68
2022-07-25T17:00:33.603Z,31.60
2022-07-25T17:03:20.071Z,31.54
2022-07-25T17:06:07.551Z,31.50
2022-07-25T17:08:54.180Z,31.24
2022-07-25T17:11:40.556Z,31.16
2022-07-25T17:14:30.207Z,31.08
2022-07-25T17:17:16.785Z,31.01
2022-07-25T17:20:04.098Z,31.02
2022-07-25T17:22:50.415Z,30.98
2022-07-25T17:25:37.235Z,30.68
2022-07-25T17:28:23.926Z,30.78
2022-07-25T17:31:10.330Z,30.56
2022-07-25T17:33:57.014Z,30.51
2022-07-25T17:36:43.792Z,30.42
2022-07-25T17:39:30.534Z,30.25
2022-07-25T17:42:22.094Z,30.24
2022-07-25T17:45:09.423Z,30.30
2022-07-25T17:47:55.909Z,30.00
2022-07-25T17:50:42.464Z,30.00
2022-07-25T17:53:29.078Z,29.81
2022-07-25T17:56:15.305Z,29.56
2022-07-25T17:59:02.213Z,29.81
2022-07-25T18:01:48.497Z,29.64
2022-07-25T18:04:35.436Z,29.52
2022-07-25T18:07:21.711Z,29.39
2022-07-25T18:10:08.242Z,29.18
2022-07-25T18:12:54.597Z,29.15
2022-07-25T18:15:41.645Z,28.79
2022-07-25T18:18:31.631Z,28.61
2022-07-25T18:21:18.091Z,28.32
2022-07-25T18:24:05.422Z,28.35
2022-07-25T18:26:51.931Z,28.21
2022-07-25T18:29:38.814Z,28.13
2022-07-25T18:32:25.318Z,27.97
2022-07-25T18:35:11.816Z,27.67
2022-07-25T18:37:58.348Z,27.37
2022-07-25T18:40:44.792Z,27.54
2022-07-25T18:43:31.263Z,27.44
2022-07-25T18:46:19.289Z,27.35
2022-07-25T18:49:05.874Z,27.28
2022-07-25T18:51:52.587Z,27.23
2022-07-25T18:54:38.812Z,26.95
2022-07-25T18:57:25.002Z,26.98
2022-07-25T19:00:11.993Z,26.80
2022-07-25T19:02:58.651Z,26.77
2022-07-25T19:05:45.275Z,26.65
2022-07-25T19:08:32.289Z,26.42
2022-07-25T19:11:18.512Z,26.44
2022-07-25T19:14:05.381Z,26.21
2022-07-25T19:16:53.516Z,26.27
2022-07-25T19:19:39.839Z,26.01
2022-07-25T19:22:26.574Z,26.18
2022-07-25T19:25:13.561Z,25.93
2022-07-25T19:28:00.106Z,26.13
2022-07-25T19:30:46.942Z,26.06
2022-07-25T19:33:35.662Z,25.51
2022-07-25T19:36:22.892Z,25.73
2022-07-25T19:39:11.420Z,25.68
2022-07-25T19:41:58.200Z,25.76
2022-07-25T19:44:44.923Z,25.52
2022-07-25T19:47:31.347Z,25.54
2022-07-25T19:50:18.089Z,25.39
2022-07-25T19:53:04.651Z,25.27
2022-07-25T19:55:51.176Z,25.26
2022-07-25T19:58:39.088Z,25.07
2022-07-25T20:01:34.259Z,24.98
2022-07-25T20:04:20.791Z,25.12
2022-07-25T20:07:07.609Z,24.71
2022-07-25T20:09:54.147Z,24.69
2022-07-25T20:12:40.639Z,24.56
2022-07-25T20:15:27.312Z,24.62
2022-07-25T20:18:18.973Z,24.64
2022-07-25T20:21:06.330Z,24.51
2022-07-25T20:23:52.928Z,24.32
2022-07-25T20:26:39.111Z,24.42
2022-07-25T20:29:25.214Z,24.47
2022-07-25T20:32:11.380Z,24.01
2022-07-25T20:34:57.904Z,24.18
2022-07-25T20:37:44.561Z,23.94
2022-07-25T20:40:30.811Z,23.86
2022-07-25T20:43:18.978Z,23.97
2022-07-25T20:46:09.245Z,23.89
2022-07-25T20:48:55.780Z,23.63
2022-07-25T20:51:42.534Z,23.55
2022-07-25T20:54:28.693Z,23.60
2022-07-25T20:57:15.226Z,23.51
2022-07-25T21:00:01.534Z,23.39
2022-07-25T21:02:48.056Z,23.26
2022-07-25T21:05:34.430Z,23.32
2022-07-25T21:08:20.661Z,23.44
2022-07-25T21:11:07.026Z,23.28
2022-07-25T21:13:53.740Z,23.25
2022-07-25T21:16:40.352Z,23.39
2022-07-25T21:19:26.895Z,23.30
2022-07-25T21:22:13.075Z,22.89
2022-07-25T21:24:59.802Z,23.22
2022-07-25T21:27:46.262Z,23.23
2022-07-25T21:30:32.750Z,22.98
2022-07-25T21:33:19.008Z,23.09
2022-07-25T21:36:05.708Z,22.99
2022-07-25T21:38:52.091Z,22.74
2022-07-25T21:41:38.430Z,22.54
2022-07-25T21:44:25.028Z,22.74
2022-07-25T21:47:12.452Z,22.79
2022-07-25T21:50:24.175Z,22.67
2022-07-25T21:53:13.414Z,22.65
2022-07-25T21:55:59.897Z,22.54
2022-07-25T21:58:46.143Z,22.36
2022-07-25T22:01:32.356Z,22.09
2022-07-25T22:04:18.869Z,22.36
2022-07-25T22:07:05.606Z,22.04
2022-07-25T22:09:52.030Z,22.20
2022-07-25T22:12:39.635Z,22.21
2022-07-25T22:15:26.089Z,22.15
2022-07-25T22:18:12.266Z,21.98
2022-07-25T22:20:58.686Z,21.68
2022-07-25T22:23:44.879Z,21.61
2022-07-25T22:26:31.467Z,21.80
2022-07-25T22:29:17.741Z,21.64
2022-07-25T22:32:04.637Z,21.66
2022-07-25T22:34:50.945Z,21.78
2022-07-25T22:37:37.546Z,21.62
2022-07-25T22:40:23.884Z,21.57
2022-07-25T22:43:10.491Z,21.45
2022-07-25T22:45:56.867Z,21.54
2022-07-25T22:48:43.509Z,21.22
2022-07-25T22:51:30.062Z,21.35
2022-07-25T22:54:16.683Z,21.36
2022-07-25T22:57:03.221Z,21.19
2022-07-25T22:59:50.126Z,21.12
2022-07-25T23:02:37.347Z,21.18
2022-07-25T23:05:24.892Z,20.92
2022-07-25T23:08:11.123Z,20.99
2022-07-25T23:10:57.489Z,20.88
2022-07-25T23:13:43.803Z,20.82
2022-07-25T23:16:30.085Z,20.96
2022-07-25T23:19:16.571Z,21.03
2022-07-25T23:22:08.311Z,20.83
2022-07-25T23:24:55.897Z,21.02
2022-07-25T23:27:42.340Z,20.92
2022-07-25T23:30:28.726Z,20.75
2022-07-25T23:33:15.178Z,20.86
2022-07-25T23:36:01.914Z,20.85
2022-07-25T23:38:48.284Z,20.62
2022-07-25T23:41:34.547Z,20.70
2022-07-25T23:44:21.595Z,20.53
2022-07-25T23:47:10.238Z,20.67
2022-07-25T23:49:57.244Z,20.62
2022-07-25T23:52:43.918Z,20.60
2022-07-25T23:55:30.258Z,20.63
2022-07-25T23:58:16.604Z,20.65
